createdAt,value
2022-09-15T00:02:52.052Z,2.50
2022-09-15T00:07:54.931Z,2.25
2022-09-15T00:12:59.105Z,0.25
2022-09-15T00:18:01.736Z,1.00
2022-09-15T00:23:04.323Z,3.00
2022-09-15T00:28:08.333Z,1.00
2022-09-15T00:33:11.147Z,2.25
2022-09-15T00:38:15.145Z,1.00
2022-09-15T00:43:20.935Z,2.25
2022-09-15T00:48:24.239Z,0.75
2022-09-15T00:53:28.441Z,1.00
2022-09-15T00:58:38.895Z,2.75
2022-09-15T01:03:41.691Z,1.00
2022-09-15T01:08:49.319Z,1.75
2022-09-15T01:13:53.269Z,1.50
2022-09-15T01:19:11.297Z,2.00
2022-09-15T01:24:49.914Z,1.00
2022-09-15T01:30:12.962Z,2.00
2022-09-15T01:35:27.958Z,2.00
2022-09-15T01:40:36.362Z,3.00
2022-09-15T01:45:43.965Z,0.75
2022-09-15T01:50:50.191Z,1.25
2022-09-15T01:55:57.298Z,1.00
2022-09-15T02:01:05.192Z,2.50
2022-09-15T02:06:15.717Z,2.25
2022-09-15T02:11:20.577Z,3.00
2022-09-15T02:16:28.496Z,1.75
2022-09-15T02:21:39.466Z,1.25
2022-09-15T02:26:44.075Z,2.00
2022-09-15T02:31:49.755Z,2.00
2022-09-15T02:36:54.581Z,2.25
2022-09-15T02:41:57.453Z,1.00
2022-09-15T02:47:02.564Z,2.75
2022-09-15T02:52:05.150Z,2.00
2022-09-15T02:57:07.948Z,2.00
2022-09-15T03:02:12.561Z,1.00
2022-09-15T03:07:15.577Z,3.00
2022-09-15T03:12:18.161Z,2.00
2022-09-15T03:17:22.116Z,2.25
2022-09-15T03:22:24.742Z,2.00
2022-09-15T03:27:27.465Z,1.50
2022-09-15T03:32:31.442Z,2.50
2022-09-15T03:37:34.431Z,1.00
2022-09-15T03:42:37.005Z,2.00
2022-09-15T03:47:40.964Z,3.00
2022-09-15T03:52:43.633Z,2.00
2022-09-15T03:57:46.268Z,2.50
2022-09-15T04:02:50.582Z,2.00
2022-09-15T04:07:53.241Z,2.00
2022-09-15T04:12:56.174Z,2.00
2022-09-15T04:18:00.116Z,3.00
2022-09-15T04:23:02.737Z,1.75
2022-09-15T04:28:05.707Z,2.00
2022-09-15T04:33:09.600Z,2.50
2022-09-15T04:38:12.308Z,3.25
2022-09-15T04:43:14.891Z,1.75
2022-09-15T04:48:19.038Z,3.00
2022-09-15T04:53:22.080Z,3.25
2022-09-15T04:58:24.642Z,1.25
2022-09-15T05:03:28.613Z,2.00
2022-09-15T05:08:31.210Z,2.50
2022-09-15T05:13:34.982Z,1.75
2022-09-15T05:18:39.364Z,2.50
2022-09-15T05:23:42.289Z,2.50
2022-09-15T05:28:45.123Z,2.00
2022-09-15T05:33:50.576Z,2.00
2022-09-15T05:38:54.279Z,2.00
2022-09-15T05:43:58.438Z,2.50
2022-09-15T05:49:02.387Z,2.00
2022-09-15T05:54:05.327Z,2.00
2022-09-15T05:59:07.916Z,3.00
2022-09-15T06:04:12.350Z,2.00
2022-09-15T06:09:15.795Z,1.00
2022-09-15T06:14:18.437Z,2.25
2022-09-15T06:19:22.474Z,2.00
2022-09-15T06:24:25.109Z,3.00
2022-09-15T06:29:29.018Z,2.50
2022-09-15T06:34:33.790Z,2.75
2022-09-15T06:39:36.549Z,2.00
2022-09-15T06:44:39.222Z,3.00
2022-09-15T06:49:43.322Z,15.50
2022-09-15T06:54:45.928Z,16.00
2022-09-15T06:59:48.712Z,12.00
2022-09-15T07:04:52.677Z,15.75
2022-09-15T07:09:55.645Z,14.50
2022-09-15T07:14:58.224Z,15.75
2022-09-15T07:20:02.442Z,11.75
2022-09-15T07:25:05.622Z,7.50
2022-09-15T07:30:08.837Z,7.25
2022-09-15T07:35:12.774Z,5.25
2022-09-15T07:40:15.742Z,4.00
2022-09-15T07:45:18.475Z,5.50
2022-09-15T07:50:22.499Z,5.25
2022-09-15T07:55:25.556Z,3.75
2022-09-15T08:00:28.471Z,4.50
2022-09-15T08:05:37.324Z,4.75
2022-09-15T08:10:41.845Z,6.00
2022-09-15T08:15:45.164Z,5.00
2022-09-15T08:20:49.180Z,4.00
2022-09-15T08:25:52.342Z,4.25
2022-09-15T08:31:01.149Z,3.25
2022-09-15T08:36:10.826Z,5.00
2022-09-15T08:41:19.617Z,5.00
2022-09-15T08:46:28.529Z,3.00
2022-09-15T08:51:42.665Z,3.00
2022-09-15T08:56:45.858Z,4.00
2022-09-15T09:02:42.534Z,3.00
2022-09-15T09:08:04.266Z,3.50
2022-09-15T09:13:19.447Z,3.50
2022-09-15T09:18:59.836Z,3.75
2022-09-15T09:24:07.272Z,4.50
2022-09-15T09:29:18.410Z,4.75
2022-09-15T09:34:28.789Z,2.75
2022-09-15T09:39:33.273Z,5.50
2022-09-15T09:44:36.114Z,5.00
2022-09-15T09:49:41.800Z,5.25
2022-09-15T09:54:45.701Z,4.00
2022-09-15T09:59:49.660Z,3.50
2022-09-15T10:04:54.308Z,5.00
2022-09-15T10:10:00.606Z,4.00
2022-09-15T10:15:05.602Z,6.00
2022-09-15T10:20:24.316Z,5.75
2022-09-15T10:25:55.005Z,5.00
2022-09-15T10:31:07.912Z,4.75
2022-09-15T10:36:16.104Z,5.00
2022-09-15T10:41:24.921Z,5.00
2022-09-15T10:46:37.536Z,5.50
2022-09-15T10:51:54.102Z,5.50
2022-09-15T10:57:06.005Z,5.50
2022-09-15T11:02:29.702Z,5.50
2022-09-15T11:07:40.387Z,5.75
2022-09-15T11:12:56.515Z,7.00
2022-09-15T11:18:17.054Z,5.00
2022-09-15T11:23:25.412Z,6.00
2022-09-15T11:28:37.002Z,5.50
2022-09-15T11:33:45.701Z,6.00
2022-09-15T11:38:54.067Z,5.50
2022-09-15T11:44:08.090Z,5.00
2022-09-15T11:49:16.838Z,4.50
2022-09-15T11:54:25.090Z,4.00
2022-09-15T11:59:39.061Z,5.50
2022-09-15T12:04:57.850Z,3.25
2022-09-15T12:10:08.031Z,5.00
2022-09-15T12:15:16.323Z,4.50
2022-09-15T12:20:25.148Z,4.00
2022-09-15T12:25:34.598Z,3.25
2022-09-15T12:30:42.659Z,4.50
2022-09-15T12:35:45.272Z,2.75
2022-09-15T12:40:58.887Z,5.75
2022-09-15T12:46:03.260Z,4.00
2022-09-15T12:51:10.672Z,5.00
2022-09-15T12:56:25.389Z,4.00
2022-09-15T13:01:47.016Z,3.00
2022-09-15T13:07:23.603Z,4.00
2022-09-15T13:12:34.169Z,3.75
2022-09-15T13:17:45.207Z,3.75
2022-09-15T13:22:52.143Z,4.00
2022-09-15T13:27:57.545Z,4.00
2022-09-15T13:33:12.088Z,4.75
2022-09-15T13:38:49.323Z,3.50
2022-09-15T13:44:14.385Z,4.75
2022-09-15T13:49:46.527Z,4.00
2022-09-15T13:55:10.005Z,3.75
2022-09-15T14:00:20.884Z,2.50
2022-09-15T14:05:30.661Z,3.50
2022-09-15T14:10:40.551Z,4.00
2022-09-15T14:15:57.763Z,4.00
2022-09-15T14:21:04.046Z,4.50
2022-09-15T14:26:13.197Z,4.00
2022-09-15T14:31:16.108Z,3.50
2022-09-15T14:36:25.347Z,11.00
2022-09-15T14:41:32.985Z,7.00
2022-09-15T14:46:38.874Z,6.25
2022-09-15T14:51:44.147Z,5.50
2022-09-15T14:56:50.064Z,6.50
2022-09-15T15:02:01.925Z,5.75
2022-09-15T15:07:14.958Z,5.50
2022-09-15T15:12:24.674Z,3.50
2022-09-15T15:17:33.267Z,5.50
2022-09-15T15:22:37.748Z,5.00
2022-09-15T15:27:43.978Z,5.00
2022-09-15T15:32:46.937Z,4.00
2022-09-15T15:38:02.096Z,3.75
2022-09-15T15:43:07.861Z,3.50
2022-09-15T15:48:11.044Z,4.00
2022-09-15T15:53:14.996Z,3.50
2022-09-15T15:58:18.104Z,8.50
2022-09-15T16:03:21.836Z,12.25
2022-09-15T16:08:30.028Z,24.20
2022-09-15T16:13:32.771Z,20.60
2022-09-15T16:18:35.429Z,17.00
2022-09-15T16:23:39.569Z,17.50
2022-09-15T16:28:42.469Z,13.75
2022-09-15T16:33:45.308Z,1.75
2022-09-15T16:38:49.335Z,2.00
2022-09-15T16:43:53.409Z,2.00
2022-09-15T16:48:56.128Z,2.00
2022-09-15T16:54:00.122Z,2.00
2022-09-15T16:59:02.833Z,1.50
2022-09-15T17:04:12.543Z,2.00
2022-09-15T17:09:16.473Z,0.50
2022-09-15T17:14:19.676Z,1.00
2022-09-15T17:19:22.257Z,1.00
2022-09-15T17:24:26.424Z,1.00
2022-09-15T17:29:29.326Z,2.00
2022-09-15T17:34:31.951Z,1.00
2022-09-15T17:39:36.242Z,0.25
2022-09-15T17:44:38.870Z,2.00
2022-09-15T17:49:41.514Z,1.75
2022-09-15T17:54:45.604Z,1.25
2022-09-15T17:59:48.459Z,0.25
2022-09-15T18:04:51.024Z,1.25
2022-09-15T18:09:55.518Z,0.75
2022-09-15T18:14:58.145Z,1.50
2022-09-15T18:20:00.876Z,1.00
2022-09-15T18:25:05.229Z,1.50
2022-09-15T18:30:09.171Z,0.25
2022-09-15T18:35:17.702Z,0.75
2022-09-15T18:40:22.648Z,0.00
2022-09-15T18:45:25.856Z,1.50
2022-09-15T18:50:28.762Z,1.00
2022-09-15T18:55:33.313Z,0.25
2022-09-15T19:00:36.239Z,1.00
2022-09-15T19:05:38.946Z,0.25
2022-09-15T19:10:44.142Z,1.50
2022-09-15T19:15:49.179Z,0.00
2022-09-15T19:20:54.326Z,1.00
2022-09-15T19:25:58.332Z,0.75
2022-09-15T19:31:01.604Z,1.25
2022-09-15T19:36:26.998Z,0.00
2022-09-15T19:41:32.201Z,1.00
2022-09-15T19:46:34.941Z,1.75
2022-09-15T19:51:37.697Z,1.50
2022-09-15T19:56:41.690Z,1.00
2022-09-15T20:01:44.394Z,1.00
2022-09-15T20:06:47.026Z,0.50
2022-09-15T20:11:51.090Z,0.75
2022-09-15T20:16:56.201Z,0.00
2022-09-15T20:22:02.928Z,0.75
2022-09-15T20:27:08.863Z,0.00
2022-09-15T20:32:11.622Z,0.50
2022-09-15T20:37:14.247Z,0.50
2022-09-15T20:42:18.626Z,1.00
2022-09-15T20:47:21.278Z,0.25
2022-09-15T20:52:27.968Z,1.00
2022-09-15T20:57:33.516Z,0.00
2022-09-15T21:02:36.234Z,1.00
2022-09-15T21:07:38.859Z,0.00
2022-09-15T21:12:43.031Z,0.00
2022-09-15T21:17:46.078Z,1.00
2022-09-15T21:22:54.296Z,0.00
2022-09-15T21:27:58.199Z,0.75
2022-09-15T21:33:01.070Z,0.00
2022-09-15T21:38:03.749Z,0.50
2022-09-15T21:43:07.657Z,0.25
2022-09-15T21:48:10.354Z,0.75
2022-09-15T21:53:13.218Z,0.00
2022-09-15T21:58:17.804Z,0.00
2022-09-15T22:03:20.767Z,0.75
2022-09-15T22:08:23.635Z,0.00
2022-09-15T22:13:39.770Z,0.50
2022-09-15T22:18:43.443Z,0.00
2022-09-15T22:23:48.214Z,0.00
2022-09-15T22:28:52.260Z,0.25
2022-09-15T22:33:55.254Z,0.00
2022-09-15T22:39:04.813Z,0.00
2022-09-15T22:44:18.670Z,0.25
2022-09-15T22:49:21.352Z,1.00
2022-09-15T22:54:23.971Z,0.00
2022-09-15T22:59:28.530Z,0.00
2022-09-15T23:04:31.138Z,0.00
2022-09-15T23:09:34.245Z,0.00
2022-09-15T23:14:38.224Z,0.00
2022-09-15T23:19:40.990Z,0.50
2022-09-15T23:24:43.665Z,0.00
2022-09-15T23:29:47.628Z,0.00
2022-09-15T23:34:50.327Z,0.00
2022-09-15T23:39:53.088Z,0.00
2022-09-15T23:44:57.136Z,0.00
2022-09-15T23:50:00.303Z,0.00
2022-09-15T23:55:02.946Z,0.50
